Time;durP1;ratioP1;P1;durP2;ratioP2;P2;SDS_P1;SDS_P2;PMS_P1;PMS_P2;Temp;Humidity;BMP_temperature;BMP_pressure;BME280_temperature;BME280_humidity;BME280_pressure;Samples;Min_cycle;Max_cycle;Signal;HPM_P1;HPM_P2
2022/05/08 00:00:41;;;;;;;6.30;5.70;;;17.50;94.10;;;;;;5033863;28;20251;-69
2022/05/08 00:03:09;;;;;;;5.90;5.30;;;17.60;94.10;;;;;;5032993;28;20258;-68
2022/05/08 00:05:34;;;;;;;6.37;5.80;;;17.50;94.00;;;;;;5032680;28;20540;-69
2022/05/08 00:08:00;;;;;;;6.23;5.67;;;17.60;94.20;;;;;;5032535;28;20228;-68
2022/05/08 00:10:26;;;;;;;10.17;5.53;;;17.60;94.10;;;;;;5033357;28;20220;-68
2022/05/08 00:12:51;;;;;;;8.97;5.67;;;17.60;94.10;;;;;;5031860;28;20231;-67
2022/05/08 00:15:17;;;;;;;7.03;6.33;;;17.50;94.30;;;;;;5031616;28;20292;-68
2022/05/08 00:17:44;;;;;;;6.60;6.00;;;17.30;94.40;;;;;;5023399;28;20296;-68
2022/05/08 00:20:10;;;;;;;6.27;5.70;;;17.30;94.50;;;;;;5028218;28;20242;-68
2022/05/08 00:22:43;;;;;;;6.90;6.23;;;17.30;94.50;;;;;;5033033;28;20455;-68
2022/05/08 00:25:09;;;;;;;9.27;6.57;;;17.30;94.50;;;;;;5032556;28;20634;-68
2022/05/08 00:27:34;;;;;;;7.00;5.90;;;17.30;94.60;;;;;;5014779;28;20519;-68
2022/05/08 00:30:01;;;;;;;7.03;6.43;;;17.20;94.80;;;;;;5032646;28;20269;-67
2022/05/08 00:32:27;;;;;;;6.17;5.47;;;17.20;94.80;;;;;;5032559;28;20346;-70
2022/05/08 00:34:53;;;;;;;7.10;5.93;;;17.10;94.70;;;;;;5026239;28;20451;-68
2022/05/08 00:37:19;;;;;;;6.33;5.73;;;17.20;94.80;;;;;;5023113;28;20677;-68
2022/05/08 00:39:44;;;;;;;6.57;5.97;;;17.10;94.80;;;;;;5015620;28;20525;-69
2022/05/08 00:42:12;;;;;;;8.90;6.60;;;17.10;94.80;;;;;;5031257;28;20696;-68
2022/05/08 00:44:38;;;;;;;6.17;5.57;;;17.20;94.80;;;;;;5030784;28;20447;-68
2022/05/08 00:47:04;;;;;;;7.37;6.60;;;17.20;94.80;;;;;;5032284;28;20567;-70
2022/05/08 00:49:29;;;;;;;5.93;5.40;;;17.20;94.60;;;;;;5031228;28;20228;-68
2022/05/08 00:51:55;;;;;;;6.70;5.00;;;17.20;94.40;;;;;;5031639;28;20470;-68
2022/05/08 00:54:21;;;;;;;7.57;6.00;;;17.30;94.30;;;;;;5030040;28;20274;-69
2022/05/08 00:56:47;;;;;;;7.20;5.37;;;17.30;94.20;;;;;;5032243;28;20459;-68
2022/05/08 00:59:13;;;;;;;9.90;6.00;;;17.30;94.10;;;;;;5028943;28;20247;-67
2022/05/08 01:01:39;;;;;;;6.47;5.87;;;17.30;94.30;;;;;;5032928;28;20205;-68
2022/05/08 01:04:04;;;;;;;7.57;5.90;;;17.20;94.30;;;;;;5030039;28;20231;-69
2022/05/08 01:06:31;;;;;;;7.20;5.87;;;17.20;94.40;;;;;;5015066;28;20232;-67
2022/05/08 01:08:57;;;;;;;6.17;5.57;;;17.20;94.50;;;;;;5014090;28;20307;-68
2022/05/08 01:11:23;;;;;;;7.10;5.70;;;17.20;94.60;;;;;;5013782;28;20526;-68
2022/05/08 01:13:49;;;;;;;6.43;5.90;;;17.10;94.60;;;;;;5030992;28;20212;-68
2022/05/08 01:16:19;;;;;;;7.30;5.83;;;17.10;94.60;;;;;;5014469;28;20621;-68
2022/05/08 01:18:46;;;;;;;6.57;5.97;;;17.10;94.50;;;;;;5029076;28;20463;-67
2022/05/08 01:21:17;;;;;;;5.93;5.00;;;17.20;94.40;;;;;;5029710;28;20550;-68
2022/05/08 01:23:43;;;;;;;6.47;5.87;;;17.20;94.40;;;;;;5030730;28;20478;-68
2022/05/08 01:26:10;;;;;;;6.80;6.20;;;17.20;94.40;;;;;;5013968;28;20497;-68
2022/05/08 01:28:36;;;;;;;6.10;5.50;;;17.20;94.30;;;;;;5030283;28;20551;-68
2022/05/08 01:31:02;;;;;;;6.87;6.17;;;17.20;94.10;;;;;;5030350;28;20542;-67
2022/05/08 01:33:28;;;;;;;6.53;5.87;;;17.20;94.10;;;;;;5032177;28;20458;-68
2022/05/08 01:35:53;;;;;;;7.30;6.60;;;17.20;94.20;;;;;;5013416;28;20451;-68
2022/05/08 01:38:21;;;;;;;6.37;5.77;;;17.20;94.10;;;;;;5031334;28;20594;-68
2022/05/08 01:40:47;;;;;;;8.07;5.93;;;17.20;94.00;;;;;;5030668;28;20235;-68
2022/05/08 01:43:14;;;;;;;6.77;6.07;;;17.10;94.00;;;;;;5031269;28;20458;-68
2022/05/08 01:45:40;;;;;;;7.00;5.57;;;17.10;94.00;;;;;;5029912;28;20220;-68
2022/05/08 01:48:22;;;;;;;6.23;5.23;;;17.10;93.90;;;;;;5012816;28;20456;-68
2022/05/08 01:50:53;;;;;;;6.47;5.93;;;17.10;94.30;;;;;;5030609;28;20455;-66
2022/05/08 01:53:21;;;;;;;7.00;6.30;;;17.10;94.20;;;;;;5037733;28;20455;-69
2022/05/08 01:55:49;;;;;;;8.63;5.83;;;17.10;94.20;;;;;;5030013;28;20459;-68
2022/05/08 01:58:17;;;;;;;6.70;6.10;;;17.10;94.10;;;;;;5029364;28;20597;-68
2022/05/08 02:00:44;;;;;;;8.17;5.83;;;17.00;94.00;;;;;;5030158;28;20475;-68
2022/05/08 02:03:10;;;;;;;6.43;5.83;;;17.00;94.10;;;;;;5027714;28;20479;-68
2022/05/08 02:05:39;;;;;;;5.90;5.40;;;17.00;94.10;;;;;;5017430;28;20462;-70
2022/05/08 02:08:06;;;;;;;8.13;6.00;;;17.00;94.20;;;;;;5028257;28;20546;-68
2022/05/08 02:10:31;;;;;;;7.17;5.63;;;17.00;94.20;;;;;;5021167;28;20470;-68
2022/05/08 02:12:57;;;;;;;7.50;6.67;;;16.90;94.20;;;;;;5029414;28;20471;-67
2022/05/08 02:15:29;;;;;;;6.30;5.67;;;16.90;94.30;;;;;;5029081;28;20561;-67
2022/05/08 02:18:03;;;;;;;6.60;6.00;;;16.90;94.10;;;;;;5009099;28;20475;-67
2022/05/08 02:20:29;;;;;;;6.47;5.60;;;16.80;94.10;;;;;;5010863;28;20463;-64
2022/05/08 02:22:56;;;;;;;6.00;5.40;;;16.80;94.00;;;;;;5015961;28;21010;-67
2022/05/08 02:25:21;;;;;;;7.30;5.77;;;16.80;94.20;;;;;;5009341;28;20584;-66
2022/05/08 02:27:51;;;;;;;6.20;5.60;;;16.80;94.20;;;;;;5024798;28;20594;-68
2022/05/08 02:30:19;;;;;;;5.57;5.07;;;16.80;94.20;;;;;;5009248;28;20231;-68
2022/05/08 02:32:45;;;;;;;7.63;6.03;;;16.80;94.20;;;;;;5012573;28;20546;-67
2022/05/08 02:35:11;;;;;;;6.83;6.23;;;16.80;94.20;;;;;;5011959;28;20565;-67
2022/05/08 02:37:39;;;;;;;6.90;6.20;;;16.80;94.10;;;;;;5012453;28;20524;-67
2022/05/08 02:40:08;;;;;;;7.13;5.87;;;16.70;94.10;;;;;;5028347;28;20232;-67
2022/05/08 02:42:35;;;;;;;7.43;6.40;;;16.80;94.10;;;;;;5030867;28;20524;-67
2022/05/08 02:45:02;;;;;;;5.83;5.23;;;16.70;94.40;;;;;;5028882;28;20448;-67
2022/05/08 02:47:28;;;;;;;6.37;5.77;;;16.70;94.10;;;;;;5012060;28;20435;-66
2022/05/08 02:49:54;;;;;;;6.60;5.80;;;16.70;94.10;;;;;;5028491;28;20469;-67
2022/05/08 02:52:20;;;;;;;7.43;6.70;;;16.70;94.10;;;;;;5025322;28;20220;-67
2022/05/08 02:54:46;;;;;;;6.00;5.50;;;16.70;94.10;;;;;;5027553;28;20455;-67
2022/05/08 03:00:05;;;;;;;6.90;6.17;;;16.60;94.10;;;;;;5029600;28;20701;-67
2022/05/08 03:02:34;;;;;;;6.43;5.83;;;16.60;94.10;;;;;;5012388;28;20443;-67
2022/05/08 03:05:03;;;;;;;7.13;6.53;;;16.60;94.00;;;;;;5011565;28;20455;-66
2022/05/08 03:07:29;;;;;;;6.70;6.10;;;16.60;94.10;;;;;;5037541;28;21009;-69
2022/05/08 03:09:56;;;;;;;6.50;5.40;;;16.50;94.10;;;;;;5011778;28;20455;-67
2022/05/08 03:12:23;;;;;;;5.93;5.23;;;16.50;94.20;;;;;;5028877;28;20236;-68
2022/05/08 03:14:49;;;;;;;7.80;6.40;;;16.50;94.20;;;;;;5011896;28;20455;-68
2022/05/08 03:17:16;;;;;;;6.83;5.60;;;16.50;94.20;;;;;;5007846;28;21187;-66
2022/05/08 03:19:42;;;;;;;8.00;6.73;;;16.50;94.30;;;;;;5023371;28;20478;-68
2022/05/08 03:22:07;;;;;;;6.93;6.23;;;16.40;94.20;;;;;;5024616;28;20459;-67
2022/05/08 03:24:33;;;;;;;7.53;6.63;;;16.40;94.70;;;;;;5011778;28;20323;-67
2022/05/08 03:26:59;;;;;;;6.63;6.03;;;16.30;94.70;;;;;;5027866;28;20259;-68
2022/05/08 03:29:26;;;;;;;7.90;6.33;;;16.20;95.30;;;;;;5027637;28;20228;-68
2022/05/08 03:31:52;;;;;;;6.87;6.27;;;16.10;95.30;;;;;;5019380;28;20220;-68
2022/05/08 03:34:21;;;;;;;9.90;5.60;;;16.10;95.40;;;;;;5027572;28;20439;-67
2022/05/08 03:36:47;;;;;;;7.20;6.37;;;16.10;95.40;;;;;;5012160;28;20471;-68
2022/05/08 03:39:13;;;;;;;6.83;6.23;;;16.00;95.60;;;;;;5028390;28;20875;-69
2022/05/08 03:41:39;;;;;;;6.70;5.60;;;16.10;95.30;;;;;;5029689;28;20304;-67
2022/05/08 03:44:04;;;;;;;6.80;5.80;;;16.10;95.30;;;;;;5006242;28;20304;-67
2022/05/08 03:46:30;;;;;;;5.77;5.23;;;16.10;95.40;;;;;;5026058;28;20243;-67
2022/05/08 03:48:56;;;;;;;9.03;6.20;;;16.10;95.30;;;;;;5030181;28;20498;-68
2022/05/08 03:51:22;;;;;;;6.73;6.03;;;16.10;95.30;;;;;;5014049;28;20269;-68
2022/05/08 03:53:48;;;;;;;6.93;6.00;;;16.10;95.00;;;;;;5010900;28;20587;-66
2022/05/08 03:56:15;;;;;;;6.93;5.90;;;16.10;95.20;;;;;;5027641;28;20444;-66
2022/05/08 03:58:41;;;;;;;6.20;5.60;;;16.10;95.30;;;;;;5027603;28;20627;-67
2022/05/08 04:01:07;;;;;;;8.00;5.67;;;16.10;95.80;;;;;;5027682;28;20505;-67
2022/05/08 04:03:33;;;;;;;7.77;6.30;;;16.00;95.30;;;;;;5011065;28;20455;-67
2022/05/08 04:05:59;;;;;;;6.07;5.40;;;16.00;95.70;;;;;;5027388;28;20224;-67
2022/05/08 04:08:24;;;;;;;6.70;6.00;;;15.90;96.00;;;;;;5027653;28;20459;-67
2022/05/08 04:10:50;;;;;;;6.97;6.30;;;15.90;96.00;;;;;;5026659;28;20265;-67
2022/05/08 04:13:16;;;;;;;6.70;6.03;;;15.90;95.80;;;;;;5001009;28;20270;-67
2022/05/08 04:18:26;;;;;;;6.43;5.77;;;15.90;95.70;;;;;;5026676;28;20297;-67
2022/05/08 04:20:52;;;;;;;9.20;6.70;;;15.90;95.80;;;;;;5027604;28;20937;-69
2022/05/08 04:26:02;;;;;;;7.90;6.23;;;15.90;95.50;;;;;;5027614;28;20221;-67
2022/05/08 04:28:28;;;;;;;7.13;6.47;;;15.90;95.70;;;;;;5011013;28;20456;-68
2022/05/08 04:30:54;;;;;;;7.67;5.90;;;15.90;95.60;;;;;;5005169;28;20229;-67
2022/05/08 04:33:20;;;;;;;6.73;6.10;;;15.90;95.60;;;;;;5028043;28;20463;-68
2022/05/08 04:35:46;;;;;;;6.97;6.10;;;15.90;95.60;;;;;;5014802;28;21005;-67
2022/05/08 04:38:12;;;;;;;7.80;6.67;;;15.90;95.60;;;;;;5030643;28;20306;-67
2022/05/08 04:40:41;;;;;;;5.60;5.10;;;15.90;95.70;;;;;;5015256;28;20303;-68
2022/05/08 04:43:07;;;;;;;6.53;5.60;;;15.90;95.70;;;;;;5014554;28;20514;-67
2022/05/08 04:45:33;;;;;;;7.57;6.77;;;15.90;95.70;;;;;;5015577;28;20442;-69
2022/05/08 04:47:58;;;;;;;6.00;5.40;;;15.90;95.70;;;;;;5029171;28;20466;-66
2022/05/08 04:50:24;;;;;;;6.93;6.00;;;15.90;95.70;;;;;;5009419;28;20220;-67
2022/05/08 04:52:50;;;;;;;6.77;6.13;;;15.90;95.70;;;;;;5012415;28;20300;-67
2022/05/08 04:55:16;;;;;;;6.53;5.93;;;15.90;95.80;;;;;;5029459;28;20251;-66
2022/05/08 04:57:41;;;;;;;7.00;6.23;;;15.90;95.60;;;;;;5030876;28;20278;-67
2022/05/08 05:00:08;;;;;;;6.67;5.70;;;15.90;95.70;;;;;;5023718;28;20316;-67
2022/05/08 05:02:33;;;;;;;7.00;6.17;;;15.90;95.70;;;;;;5011227;28;20225;-69
2022/05/08 05:05:00;;;;;;;7.00;6.30;;;15.90;95.60;;;;;;4994022;28;20509;-68
2022/05/08 05:07:27;;;;;;;6.70;6.00;;;15.90;95.60;;;;;;5005045;28;20212;-66
2022/05/08 05:09:52;;;;;;;7.87;5.70;;;15.80;95.70;;;;;;5020933;28;20530;-68
2022/05/08 05:12:18;;;;;;;5.90;5.40;;;15.90;95.90;;;;;;5032090;28;20534;-66
2022/05/08 05:14:44;;;;;;;7.07;6.37;;;15.90;95.90;;;;;;5014454;28;20216;-68
2022/05/08 05:17:10;;;;;;;8.40;6.70;;;15.90;96.30;;;;;;5009985;28;20693;-68
2022/05/08 05:19:36;;;;;;;6.90;6.20;;;15.90;96.10;;;;;;5012081;28;20736;-68
2022/05/08 05:22:02;;;;;;;10.03;5.73;;;15.90;96.40;;;;;;5013627;28;20482;-68
2022/05/08 05:24:31;;;;;;;6.33;5.73;;;15.90;96.40;;;;;;5030225;28;20212;-66
2022/05/08 05:26:58;;;;;;;7.30;6.47;;;15.90;96.30;;;;;;5014180;28;20447;-68
2022/05/08 05:29:24;;;;;;;7.03;6.30;;;15.90;96.60;;;;;;5013201;28;20464;-68
2022/05/08 05:31:50;;;;;;;6.77;6.07;;;16.00;97.00;;;;;;5014211;28;20455;-67
2022/05/08 05:34:16;;;;;;;6.10;5.60;;;16.00;97.30;;;;;;5028894;28;20220;-66
2022/05/08 05:36:41;;;;;;;6.63;5.93;;;16.00;97.10;;;;;;5014219;28;20213;-68
2022/05/08 05:39:07;;;;;;;6.80;5.70;;;16.00;97.40;;;;;;5019982;28;20212;-69
2022/05/08 05:41:33;;;;;;;7.30;6.27;;;16.00;97.60;;;;;;5017638;28;20278;-67
2022/05/08 05:44:03;;;;;;;8.00;5.20;;;16.00;97.80;;;;;;5023403;28;20306;-68
2022/05/08 05:49:16;;;;;;;11.60;6.70;;;16.00;97.80;;;;;;5025334;28;20460;-67
2022/05/08 05:51:42;;;;;;;9.23;6.30;;;16.10;98.00;;;;;;5018358;28;20451;-67
2022/05/08 05:54:07;;;;;;;7.43;6.67;;;16.10;98.10;;;;;;5012811;28;20217;-67
2022/05/08 05:56:33;;;;;;;10.60;6.43;;;16.10;98.20;;;;;;5013413;28;20220;-67
2022/05/08 05:58:59;;;;;;;6.70;6.10;;;16.10;98.50;;;;;;5012481;28;20216;-67
2022/05/08 06:01:25;;;;;;;7.50;6.23;;;16.20;98.60;;;;;;5006822;28;20232;-67
2022/05/08 06:03:50;;;;;;;7.03;6.33;;;16.20;98.60;;;;;;5029387;28;20232;-68
2022/05/08 06:06:17;;;;;;;6.80;6.20;;;16.20;98.70;;;;;;5012860;28;20224;-68
2022/05/08 06:08:43;;;;;;;6.50;5.40;;;16.20;98.90;;;;;;5012892;28;20867;-66
2022/05/08 06:11:08;;;;;;;6.37;5.77;;;16.20;99.30;;;;;;5012594;28;20695;-68
2022/05/08 06:13:34;;;;;;;6.63;5.97;;;16.30;98.90;;;;;;5012742;28;20262;-66
2022/05/08 06:16:00;;;;;;;7.23;6.53;;;16.30;99.10;;;;;;5029556;28;20218;-67
2022/05/08 06:18:26;;;;;;;7.70;6.70;;;16.40;99.20;;;;;;5028214;28;20304;-67
2022/05/08 06:20:53;;;;;;;6.23;4.97;;;16.30;99.10;;;;;;5029495;28;20232;-67
2022/05/08 06:23:19;;;;;;;7.00;6.30;;;16.40;99.10;;;;;;5013034;28;20620;-66
2022/05/08 06:25:47;;;;;;;6.43;5.80;;;16.40;99.50;;;;;;5028860;28;20463;-67
2022/05/08 06:28:19;;;;;;;6.80;6.07;;;16.40;99.60;;;;;;5008594;28;20973;-68
2022/05/08 06:30:45;;;;;;;6.87;6.13;;;16.50;99.90;;;;;;5023080;28;20219;-69
2022/05/08 06:33:11;;;;;;;8.57;5.37;;;16.50;99.90;;;;;;5028846;28;20459;-66
2022/05/08 06:35:38;;;;;;;7.50;6.27;;;16.60;99.90;;;;;;5012401;28;20543;-69
2022/05/08 06:38:04;;;;;;;5.57;4.80;;;16.70;99.90;;;;;;5012193;28;20605;-67
2022/05/08 06:40:30;;;;;;;8.23;6.03;;;16.70;99.90;;;;;;5028952;28;20490;-68
2022/05/08 06:42:56;;;;;;;8.07;5.83;;;16.80;99.90;;;;;;5028501;28;20483;-68
2022/05/08 06:45:24;;;;;;;7.07;6.30;;;16.80;99.90;;;;;;5018060;28;20229;-68
2022/05/08 06:47:50;;;;;;;7.00;6.20;;;16.90;99.90;;;;;;5006644;28;20217;-67
2022/05/08 06:50:19;;;;;;;6.87;5.40;;;17.00;99.90;;;;;;5024846;28;20459;-68
2022/05/08 06:52:45;;;;;;;5.80;5.23;;;17.00;99.90;;;;;;5012873;28;21044;-67
2022/05/08 06:55:12;;;;;;;6.70;5.60;;;17.10;99.90;;;;;;5026465;28;20547;-68
2022/05/08 06:57:37;;;;;;;6.10;5.33;;;17.10;99.90;;;;;;5010595;28;21077;-67
2022/05/08 07:02:50;;;;;;;6.30;5.07;;;17.30;99.90;;;;;;5013572;28;20771;-66
2022/05/08 07:05:17;;;;;;;8.60;5.60;;;17.30;99.90;;;;;;5026256;28;21139;-68
2022/05/08 07:07:42;;;;;;;6.60;4.97;;;17.40;99.90;;;;;;5031414;28;20456;-68
2022/05/08 07:10:08;;;;;;;6.87;5.67;;;17.50;99.90;;;;;;5010667;28;20459;-67
2022/05/08 07:12:37;;;;;;;7.60;6.60;;;17.50;99.90;;;;;;5028050;28;20605;-67
2022/05/08 07:15:04;;;;;;;5.73;5.10;;;17.60;99.90;;;;;;5027591;28;20494;-67
2022/05/08 07:17:30;;;;;;;7.83;6.17;;;17.60;99.90;;;;;;5009753;28;20470;-69
2022/05/08 07:19:56;;;;;;;7.60;6.43;;;17.60;99.90;;;;;;5007227;28;20487;-68
2022/05/08 07:22:23;;;;;;;9.67;5.70;;;17.70;99.70;;;;;;5024659;28;20282;-69
2022/05/08 07:24:49;;;;;;;7.33;5.57;;;17.70;99.90;;;;;;5027857;28;20517;-66
2022/05/08 07:27:15;;;;;;;6.40;5.50;;;17.80;99.90;;;;;;5010788;28;20968;-67
2022/05/08 07:29:42;;;;;;;6.70;5.50;;;17.80;99.90;;;;;;5012002;28;20220;-68
2022/05/08 07:32:08;;;;;;;8.70;6.13;;;17.90;99.90;;;;;;5010160;28;20213;-66
2022/05/08 07:37:18;;;;;;;6.20;5.60;;;18.00;99.80;;;;;;5022610;28;20448;-68
2022/05/08 07:39:44;;;;;;;5.87;5.27;;;18.10;99.80;;;;;;5026273;28;20501;-68
2022/05/08 07:42:10;;;;;;;5.53;4.93;;;18.30;99.90;;;;;;5011121;28;20216;-68
2022/05/08 07:44:36;;;;;;;6.50;5.20;;;18.40;99.70;;;;;;5023883;28;20216;-68
2022/05/08 07:47:02;;;;;;;8.93;7.90;;;18.50;99.50;;;;;;5021635;28;20700;-67
2022/05/08 07:49:28;;;;;;;6.70;6.10;;;18.60;99.50;;;;;;5005695;28;20281;-68
2022/05/08 07:51:53;;;;;;;6.57;5.93;;;18.70;99.40;;;;;;4999289;28;20535;-68
2022/05/08 07:54:19;;;;;;;7.17;5.47;;;18.60;99.20;;;;;;5008286;28;20227;-66
2022/05/08 07:56:45;;;;;;;5.77;5.20;;;18.70;99.40;;;;;;5013030;28;20216;-68
2022/05/08 07:59:14;;;;;;;5.53;5.00;;;18.80;99.40;;;;;;5010034;28;20213;-68
2022/05/08 08:01:40;;;;;;;7.13;4.97;;;18.80;99.30;;;;;;5011339;28;20471;-68
2022/05/08 08:04:08;;;;;;;7.03;6.43;;;18.90;99.30;;;;;;5010575;28;20463;-69
2022/05/08 08:06:34;;;;;;;6.60;6.00;;;18.80;98.90;;;;;;5011867;28;20362;-68
2022/05/08 08:09:00;;;;;;;7.80;6.23;;;18.80;99.10;;;;;;5028851;28;21129;-69
2022/05/08 08:11:26;;;;;;;6.47;5.30;;;19.00;99.30;;;;;;5026188;28;20459;-69
2022/05/08 08:13:51;;;;;;;6.20;4.80;;;19.00;98.90;;;;;;5028908;28;20234;-68
2022/05/08 08:16:17;;;;;;;5.70;5.13;;;19.20;99.30;;;;;;5015202;28;20223;-66
2022/05/08 08:18:44;;;;;;;5.90;5.20;;;19.30;98.90;;;;;;5028147;28;20672;-68
2022/05/08 08:21:11;;;;;;;5.40;4.90;;;19.50;98.90;;;;;;5030531;28;20239;-68
2022/05/08 08:23:37;;;;;;;6.27;5.50;;;19.50;98.40;;;;;;5029353;28;20485;-68
2022/05/08 08:26:03;;;;;;;5.93;5.07;;;19.50;98.40;;;;;;5031236;28;20463;-67
2022/05/08 08:28:28;;;;;;;5.90;5.40;;;19.60;98.40;;;;;;5030899;28;20521;-68
2022/05/08 08:30:54;;;;;;;6.83;5.00;;;19.50;98.30;;;;;;5021804;28;20248;-67
2022/05/08 08:33:22;;;;;;;6.17;5.60;;;19.60;98.40;;;;;;5027716;28;20555;-68
2022/05/08 08:35:50;;;;;;;7.93;5.30;;;19.70;98.20;;;;;;5022308;28;20209;-68
2022/05/08 08:38:15;;;;;;;5.53;5.03;;;19.90;98.30;;;;;;5029205;28;20966;-67
2022/05/08 08:40:42;;;;;;;6.23;5.53;;;20.00;98.10;;;;;;5031000;28;20224;-68
2022/05/08 08:43:15;;;;;;;5.80;5.20;;;20.00;98.10;;;;;;5029093;28;20217;-68
2022/05/08 08:48:34;;;;;;;6.10;4.30;;;20.10;98.30;;;;;;5020383;28;20458;-71
2022/05/08 08:51:01;;;;;;;8.23;5.50;;;20.30;98.30;;;;;;5025106;28;20460;-71
2022/05/08 08:53:28;;;;;;;6.47;5.83;;;20.40;98.00;;;;;;5020294;28;20531;-68
2022/05/08 08:55:55;;;;;;;6.53;5.90;;;20.40;97.80;;;;;;5020556;28;20454;-70
2022/05/08 08:58:21;;;;;;;8.57;6.67;;;20.40;97.60;;;;;;5011656;28;20517;-69
2022/05/08 09:00:48;;;;;;;7.53;6.30;;;20.30;97.40;;;;;;5026229;28;20496;-69
2022/05/08 09:03:29;;;;;;;6.93;5.57;;;20.40;97.60;;;;;;5026089;28;20444;-70
2022/05/08 09:06:02;;;;;;;6.97;5.87;;;20.40;97.10;;;;;;5045388;28;20451;-70
2022/05/08 09:08:32;;;;;;;6.00;5.40;;;20.50;97.60;;;;;;5008442;28;20495;-68
2022/05/08 09:10:59;;;;;;;6.27;5.73;;;20.70;97.30;;;;;;5028767;28;20447;-67
2022/05/08 09:13:26;;;;;;;6.43;5.90;;;20.70;97.10;;;;;;5030126;28;20958;-68
2022/05/08 09:16:01;;;;;;;7.80;7.07;;;20.70;96.60;;;;;;5009375;28;21132;-69
2022/05/08 09:18:27;;;;;;;6.03;5.20;;;20.80;97.20;;;;;;5026461;28;20573;-68
2022/05/08 09:20:57;;;;;;;5.73;5.20;;;21.00;97.10;;;;;;5025749;28;20559;-69
2022/05/08 09:23:23;;;;;;;13.40;5.77;;;21.10;97.00;;;;;;5012516;28;20297;-70
2022/05/08 09:25:52;;;;;;;7.07;6.37;;;21.00;96.50;;;;;;5026649;28;20808;-68
2022/05/08 09:28:18;;;;;;;8.90;5.63;;;21.10;97.00;;;;;;5029906;28;20459;-68
2022/05/08 09:31:02;;;;;;;6.97;6.17;;;21.10;96.60;;;;;;5031607;28;20985;-68
2022/05/08 09:33:45;;;;;;;6.83;6.23;;;21.20;96.10;;;;;;5024538;28;20458;-70
2022/05/08 09:36:21;;;;;;;6.30;5.70;;;21.00;96.00;;;;;;5030876;28;20462;-70
2022/05/08 09:38:51;;;;;;;6.60;6.00;;;21.20;96.80;;;;;;5030535;28;20466;-69
2022/05/08 09:41:24;;;;;;;5.70;5.20;;;21.40;96.80;;;;;;5029990;28;20459;-70
2022/05/08 09:43:51;;;;;;;6.00;5.17;;;21.60;96.80;;;;;;5021432;28;20536;-70
2022/05/08 09:46:20;;;;;;;6.87;6.37;;;21.70;96.50;;;;;;5027858;28;20447;-68
2022/05/08 09:48:46;;;;;;;6.43;5.17;;;21.70;96.00;;;;;;5027679;28;20927;-70
2022/05/08 09:51:15;;;;;;;6.63;5.30;;;21.80;96.30;;;;;;5025811;28;20519;-69
2022/05/08 09:53:43;;;;;;;5.50;5.10;;;21.90;96.40;;;;;;5028855;28;20597;-70
2022/05/08 09:56:10;;;;;;;7.80;4.90;;;22.00;96.40;;;;;;5042300;28;20549;-70
2022/05/08 09:58:40;;;;;;;6.13;5.37;;;22.10;96.50;;;;;;5030747;28;20462;-70
2022/05/08 10:01:07;;;;;;;6.70;5.20;;;22.10;95.80;;;;;;5020389;28;20480;-70
2022/05/08 10:03:33;;;;;;;6.47;5.87;;;22.10;95.90;;;;;;5011273;28;20451;-68
2022/05/08 10:06:00;;;;;;;8.03;5.67;;;22.00;95.50;;;;;;5013266;28;20463;-70
2022/05/08 10:08:38;;;;;;;9.60;6.37;;;21.90;95.50;;;;;;5030475;28;20447;-71
2022/05/08 10:14:05;;;;;;;6.13;5.53;;;22.10;96.10;;;;;;5030128;28;20990;-71
2022/05/08 10:16:50;;;;;;;6.13;5.63;;;22.30;96.00;;;;;;5029279;28;20476;-70
2022/05/08 10:22:03;;;;;;;5.60;5.10;;;22.30;95.50;;;;;;5023726;28;20475;-70
2022/05/08 10:24:41;;;;;;;6.80;6.10;;;22.50;95.60;;;;;;5019426;28;20456;-70
2022/05/08 10:27:21;;;;;;;5.83;5.37;;;22.40;95.20;;;;;;5021674;28;20494;-70
2022/05/08 10:29:50;;;;;;;7.20;5.87;;;22.50;95.70;;;;;;5009105;28;20979;-71
2022/05/08 10:32:31;;;;;;;5.80;5.30;;;22.40;95.30;;;;;;5006635;28;20481;-70
2022/05/08 10:35:20;;;;;;;5.10;4.60;;;22.60;95.70;;;;;;5028697;28;20454;-70
2022/05/08 10:37:47;;;;;;;5.37;4.97;;;22.70;95.40;;;;;;5008767;28;20854;-70
2022/05/08 10:40:21;;;;;;;5.00;4.60;;;22.90;95.40;;;;;;5007595;28;20455;-70
2022/05/08 10:42:58;;;;;;;5.83;5.23;;;23.00;95.30;;;;;;5030321;28;20457;-70
2022/05/08 10:45:30;;;;;;;5.57;5.17;;;22.90;95.00;;;;;;5024837;28;20451;-70
2022/05/08 10:48:04;;;;;;;5.97;5.47;;;22.90;95.30;;;;;;5009094;28;20539;-71
2022/05/08 10:50:30;;;;;;;5.27;4.77;;;23.10;95.40;;;;;;5028728;28;20886;-70
2022/05/08 10:52:57;;;;;;;6.13;5.63;;;23.40;95.10;;;;;;5011262;28;20465;-70
2022/05/08 10:55:27;;;;;;;6.07;5.57;;;23.60;95.20;;;;;;5028167;28;20454;-70
2022/05/08 10:57:53;;;;;;;5.40;4.90;;;23.60;94.80;;;;;;5024611;28;20454;-70
2022/05/08 11:00:20;;;;;;;5.57;5.07;;;23.80;95.00;;;;;;5001404;28;20471;-71
2022/05/08 11:02:47;;;;;;;6.47;5.90;;;23.80;94.70;;;;;;5017052;28;20531;-71
2022/05/08 11:05:23;;;;;;;6.10;5.50;;;23.80;93.80;;;;;;5015760;28;20439;-70
2022/05/08 11:08:06;;;;;;;8.30;6.13;;;23.70;94.10;;;;;;5011628;28;20967;-71
2022/05/08 11:10:34;;;;;;;5.37;4.87;;;23.30;93.80;;;;;;5025192;28;20469;-71
2022/05/08 11:13:02;;;;;;;5.70;5.10;;;23.20;93.90;;;;;;5026107;28;20452;-70
2022/05/08 11:15:36;;;;;;;5.90;5.40;;;23.40;94.20;;;;;;5025866;28;20459;-71
2022/05/08 11:18:04;;;;;;;5.53;5.13;;;23.40;93.60;;;;;;5026078;28;20470;-72
2022/05/08 11:20:31;;;;;;;5.67;5.17;;;23.50;94.40;;;;;;5021388;28;21004;-69
2022/05/08 11:22:58;;;;;;;5.23;4.83;;;23.60;94.20;;;;;;5023112;28;20455;-70
2022/05/08 11:25:24;;;;;;;8.10;6.20;;;23.80;94.00;;;;;;5025441;28;20818;-70
2022/05/08 11:27:54;;;;;;;5.90;5.40;;;23.90;93.90;;;;;;5028828;28;20827;-70
2022/05/08 11:30:36;;;;;;;4.77;4.37;;;24.00;93.90;;;;;;5029283;28;20474;-71
2022/05/08 11:36:05;;;;;;;4.20;3.80;;;24.30;92.50;;;;;;5039456;28;20543;-70
2022/05/08 11:38:45;;;;;;;4.60;4.20;;;24.50;91.90;;;;;;5025316;28;20507;-69
2022/05/08 11:41:15;;;;;;;4.43;4.13;;;24.50;92.30;;;;;;5027513;28;20481;-71
2022/05/08 11:43:49;;;;;;;4.70;4.30;;;24.50;92.10;;;;;;5023937;28;20457;-70
2022/05/08 11:46:16;;;;;;;4.60;4.17;;;24.40;91.40;;;;;;5031448;28;20532;-69
2022/05/08 11:48:49;;;;;;;4.23;3.93;;;24.10;90.40;;;;;;5027826;28;20494;-69
2022/05/08 11:51:21;;;;;;;4.47;4.07;;;23.90;90.40;;;;;;5026807;28;20459;-70
2022/05/08 11:53:49;;;;;;;4.70;4.30;;;24.00;91.90;;;;;;5021650;28;20512;-70
2022/05/08 11:56:35;;;;;;;5.23;4.83;;;23.80;92.60;;;;;;5010617;28;20443;-71
2022/05/08 11:59:06;;;;;;;5.47;4.97;;;23.80;93.00;;;;;;5022467;28;20857;-69
2022/05/08 12:01:34;;;;;;;4.73;4.43;;;23.90;93.20;;;;;;5029182;28;20524;-71
2022/05/08 12:04:28;;;;;;;4.90;4.50;;;24.00;93.50;;;;;;5021797;28;20909;-71
2022/05/08 12:06:59;;;;;;;5.87;5.37;;;24.00;93.40;;;;;;5026575;28;20450;-71
2022/05/08 12:09:26;;;;;;;5.20;4.80;;;24.00;93.30;;;;;;5014597;28;20471;-70
2022/05/08 12:11:52;;;;;;;5.77;5.07;;;23.90;93.50;;;;;;5020323;28;20468;-71
2022/05/08 12:14:31;;;;;;;4.90;4.50;;;23.80;93.50;;;;;;5025981;28;20463;-71
2022/05/08 12:17:01;;;;;;;4.97;4.67;;;23.70;93.40;;;;;;5040236;28;20211;-71
2022/05/08 12:19:27;;;;;;;5.93;4.40;;;23.50;93.30;;;;;;5019569;28;20477;-70
2022/05/08 12:21:54;;;;;;;5.10;4.70;;;23.40;93.50;;;;;;5024017;28;20493;-70
2022/05/08 12:24:21;;;;;;;4.67;4.37;;;23.50;93.80;;;;;;5024851;28;20239;-70
2022/05/08 12:26:46;;;;;;;4.80;4.40;;;23.30;93.30;;;;;;5028851;28;20473;-70
2022/05/08 12:29:23;;;;;;;5.00;4.60;;;23.30;93.30;;;;;;5027245;28;20486;-70
2022/05/08 12:31:50;;;;;;;4.83;4.43;;;23.20;93.10;;;;;;5014085;28;20220;-71
2022/05/08 12:34:20;;;;;;;4.63;4.27;;;23.20;92.60;;;;;;5007426;28;20461;-70
2022/05/08 12:36:48;;;;;;;4.30;3.90;;;23.20;92.90;;;;;;5017643;28;20986;-71
2022/05/08 12:39:15;;;;;;;4.40;3.80;;;23.10;92.70;;;;;;5027738;28;20459;-70
2022/05/08 12:41:41;;;;;;;3.67;3.40;;;22.90;92.00;;;;;;5027878;28;20520;-70
2022/05/08 12:44:07;;;;;;;4.97;4.57;;;22.80;92.40;;;;;;5025850;28;20459;-70
2022/05/08 12:46:34;;;;;;;3.97;3.57;;;22.70;92.10;;;;;;5026185;28;20228;-69
2022/05/08 12:49:02;;;;;;;5.50;3.90;;;22.70;92.30;;;;;;5023721;28;20458;-70
2022/05/08 12:51:30;;;;;;;4.83;3.90;;;22.60;92.40;;;;;;5022296;28;20453;-70
2022/05/08 12:53:55;;;;;;;3.93;3.63;;;22.60;92.80;;;;;;5023885;28;20520;-71
2022/05/08 12:56:21;;;;;;;3.77;3.47;;;22.50;92.70;;;;;;5027959;28;20994;-70
2022/05/08 13:01:31;;;;;;;3.80;3.50;;;22.40;92.90;;;;;;5026603;28;20760;-71
2022/05/08 13:03:57;;;;;;;4.13;3.83;;;22.40;93.00;;;;;;5021317;28;20543;-70
2022/05/08 13:06:23;;;;;;;4.83;4.30;;;22.40;93.10;;;;;;5031927;28;20216;-69
2022/05/08 13:08:48;;;;;;;4.73;3.80;;;22.40;93.10;;;;;;5009313;28;20220;-71
2022/05/08 13:11:14;;;;;;;3.73;3.43;;;22.40;92.80;;;;;;5025764;28;20258;-70
2022/05/08 13:13:39;;;;;;;3.93;3.63;;;22.50;92.50;;;;;;5029874;28;20226;-70
2022/05/08 13:16:05;;;;;;;4.17;3.87;;;22.60;92.10;;;;;;5021237;28;20283;-70
2022/05/08 13:18:31;;;;;;;3.57;3.27;;;22.60;92.00;;;;;;5027934;28;20270;-70